Location Regina, SK, CA

ob CSKREGIN1 281030Z AUTO 29006G09KT FEW 07/05 A3009 RMK SLPNO 

2020.05.28 1030 UTC
Wind from the WNW (286 degrees) at 6.9 MPH (6 KT) gusting to 10.4 MPH (9 KT)
Visibility    Mile(s)
Sky Conditions  partly cloudy
Temperature 44.3 F (7 C)
Dew Point 40.1 F (5 C)
Relative Humidity 85%
Pressure   30.092 in. Hg (1019 hPa)
Rain  0.00 in.
Daily Rain 0.000 in.

Station Name  NWR Weather
Longitude, Latitude  -104.67, 50.5
Elevation 1894
Station URL http://users.accesscomm.ca/saskweather/station.htm
Software Type WeatherDisplay:10.37S